Latest Weather Observations for Coonamble

IDN60801

Issued at 8:05 pm EST Tuesday 23 September 2014 (issued every 30 minutes, with the page automatically refreshed every 10 minutes)

About weather observations | Map of weather stations | Latest weather observations for NSW | Other Formats
Station Details ID: 051161 Name: COONAMBLE AIRPORT AWS Lat: -30.98 Lon: 148.38 Height: 181.3 m
Data from the previous 72 hours. | See also: Recent months at Coonamble
Date/Time
EST
Temp
°C
App
Temp
°C
Dew
Point
Rel
Hum
%
Delta-T
°C
Wind Press
QNH
hPa
Press
MSL
hPa
Rain
since 9 am
mm
Dir
 
Spd
km/h
Gust
km/h
Spd
kts
Gust
kts
23/08:00pm 17.4 14.1 2.6 37 6.8 NNE 9 11 5 6 1022.7 1022.6 0.0
23/07:30pm 19.5 16.2 2.4 32 7.9 NNE 9 11 5 6 1022.4 1022.2 0.0
23/07:00pm 20.6 17.3 2.4 30 8.5 N 9 11 5 6 1022.3 1022.1 0.0
23/06:30pm 21.7 18.4 2.4 28 9.1 N 9 13 5 7 1022.3 1022.1 0.0
23/06:00pm 22.7 18.2 2.2 26 9.7 N 15 20 8 11 1022.1 1021.9 0.0
23/05:30pm 23.9 20.1 1.5 23 10.6 NNE 11 17 6 9 1022.0 1021.8 0.0
23/05:00pm 24.5 19.1 1.4 22 10.9 NNE 19 26 10 14 1021.9 1021.7 0.0
23/04:30pm 25.1 21.6 1.3 21 11.3 ENE 9 20 5 11 1022.0 1021.8 0.0
23/04:00pm 25.2 21.3 1.3 21 11.3 NNE 11 19 6 10 1022.3 1022.1 0.0
23/03:30pm 25.3 20.0 2.1 22 11.2 N 19 32 10 17 1022.5 1022.3 0.0
23/03:00pm 26.0 21.3 3.3 23 11.2 NNE 17 26 9 14 1022.6 1022.4 0.0
23/02:30pm 24.7 19.5 2.2 23 10.9 NNE 19 28 10 15 1022.9 1022.8 0.0
23/02:00pm 23.6 19.3 3.5 27 9.8 ENE 15 24 8 13 1023.5 1023.3 0.0
23/01:30pm 24.3 19.3 3.6 26 10.2 NE 19 24 10 13 1024.0 1023.8 0.0
23/01:00pm 23.7 18.8 4.1 28 9.7 NNE 19 28 10 15 1024.6 1024.4 0.0
23/12:30pm 24.5 21.7 5.3 29 9.8 NE 9 20 5 11 1025.1 1024.9 0.0
23/12:00pm 24.0 19.1 4.9 29 9.6 E 20 28 11 15 1025.6 1025.4 0.0
23/11:30am 23.2 20.1 5.6 32 9.0 NNW 11 17 6 9 1026.5 1026.3 0.0
23/11:00am 23.3 19.6 6.1 33 8.8 NNE 15 26 8 14 1027.0 1026.8 0.0
23/10:30am 22.0 18.2 5.8 35 8.2 N 15 24 8 13 1027.4 1027.3 0.0
23/10:00am 21.3 17.2 6.0 37 7.7 NNW 17 20 9 11 1027.7 1027.6 0.0
23/09:30am 20.8 16.4 6.4 39 7.3 N 19 30 10 16 1027.8 1027.7 0.0
23/09:00am 20.3 16.0 7.7 44 6.5 NNE 20 28 11 15 1028.1 1028.0 0.0
23/08:30am 19.0 14.9 7.8 48 5.7 NNE 19 28 10 15 1028.1 1028.0 0.0
23/08:00am 18.5 14.9 8.5 52 5.2 NNE 17 24 9 13 1028.0 1027.9 0.0
23/07:30am 16.6 13.1 7.3 54 4.7 NE 15 20 8 11 1027.8 1027.7 0.0
23/07:00am 14.7 11.4 6.5 58 4.0 NE 13 19 7 10 1027.6 1027.5 0.0
23/06:30am 12.5 9.1 5.9 64 3.1 ENE 13 19 7 10 1027.1 1026.9 0.0
23/06:00am 10.8 7.2 5.1 68 2.6 E 13 17 7 9 1027.0 1026.8 0.0
23/05:30am 10.7 7.1 4.8 67 2.7 ENE 13 15 7 8 1026.7 1026.5 0.0
23/05:00am 12.1 8.9 5.3 63 3.2 ENE 11 15 6 8 1026.5 1026.3 0.0
23/04:30am 12.7 9.1 5.1 60 3.5 ENE 13 17 7 9 1026.2 1026.0 0.0
23/04:00am 13.3 9.6 4.7 56 4.0 E 13 17 7 9 1026.0 1025.8 0.0
23/03:30am 14.0 9.9 4.6 53 4.4 E 15 22 8 12 1026.1 1025.9 0.0
23/03:00am 14.2 10.5 4.2 51 4.6 E 13 19 7 10 1026.0 1025.8 0.0
23/02:30am 13.3 9.9 3.9 53 4.3 E 11 15 6 8 1026.1 1025.9 0.0
23/02:00am 13.4 9.9 3.5 51 4.5 E 11 13 6 7 1026.1 1025.9 0.0
23/01:30am 13.3 10.8 4.5 55 4.1 E 7 11 4 6 1026.3 1026.1 0.0
23/01:00am 13.0 10.4 5.9 62 3.4 E 9 11 5 6 1026.5 1026.3 0.0
23/12:30am 13.6 10.7 6.5 62 3.4 E 11 13 6 7 1026.7 1026.5 0.0
23/12:00am 13.8 11.0 6.9 63 3.4 ESE 11 17 6 9 1026.9 1026.7 0.0
 
Date/Time
EST
Temp
°C
App
Temp
°C
Dew
Point
Rel
Hum
%
Delta-T
°C
Wind Press
QNH
hPa
Press
MSL
hPa
Rain
since 9 am
mm
Dir
 
Spd
km/h
Gust
km/h
Spd
kts
Gust
kts
22/11:30pm 13.1 10.7 7.1 67 2.9 SSW 9 11 5 6 1026.7 1026.5 0.0
22/11:00pm 12.5 10.4 6.5 67 2.9 SSW 7 9 4 5 1026.9 1026.7 0.0
22/10:30pm 12.1 9.8 5.9 66 2.9 SW 7 9 4 5 1027.0 1026.8 0.0
22/10:00pm 12.4 9.7 5.8 64 3.1 SSW 9 9 5 5 1026.9 1026.7 0.0
22/09:30pm 13.5 10.8 5.7 59 3.7 WSW 9 11 5 6 1026.9 1026.7 0.0
22/09:00pm 13.3 10.8 4.5 55 4.0 W 7 9 4 5 1026.8 1026.6 0.0
22/08:30pm 15.2 12.7 4.9 50 4.9 NW 7 7 4 4 1026.7 1026.5 0.0
22/08:00pm 16.0 13.4 4.4 46 5.4 N 7 9 4 5 1026.6 1026.4 0.0
22/07:30pm 17.1 14.5 6.0 48 5.5 NE 9 15 5 8 1026.4 1026.2 0.0
22/07:00pm 18.0 15.9 5.6 44 6.1 S 6 7 3 4 1026.1 1025.9 0.0
22/06:30pm 17.4 14.9 4.7 43 6.1 SSW 7 7 4 4 1025.8 1025.6 0.0
22/06:00pm 18.7 15.8 4.5 39 6.8 SSW 9 9 5 5 1025.6 1025.4 0.0
22/05:30pm 21.0 17.6 4.1 33 8.2 SSE 11 13 6 7 1025.4 1025.2 0.0
22/05:00pm 22.0 18.3 4.6 32 8.6 S 13 17 7 9 1025.3 1025.1 0.0
22/04:30pm 21.6 18.3 4.7 33 8.4 SSE 11 15 6 8 1025.3 1025.1 0.0
22/04:00pm 21.5 17.3 3.7 31 8.6 SE 15 20 8 11 1025.4 1025.2 0.0
22/03:30pm 21.5 18.3 3.2 30 8.8 S 9 15 5 8 1025.6 1025.4 0.0
22/03:00pm 21.6 18.9 2.8 29 8.9 ESE 6 13 3 7 1025.9 1025.7 0.0
22/02:30pm 21.3 16.9 2.6 29 8.9 SE 15 22 8 12 1026.2 1026.0 0.0
22/02:00pm 21.7 18.3 3.9 31 8.6 SE 11 19 6 10 1026.5 1026.3 0.0
22/01:30pm 21.3 18.7 4.4 33 8.3 ESE 7 17 4 9 1026.9 1026.7 0.0
22/01:00pm 20.7 17.6 3.4 32 8.2 ENE 9 17 5 9 1027.3 1027.1 0.0
22/12:30pm 20.7 16.8 3.4 32 8.3 SE 13 19 7 10 1027.9 1027.8 0.0
22/12:00pm 19.8 16.0 3.9 35 7.6 E 13 19 7 10 1028.5 1028.4 0.0
22/11:30am 19.7 16.6 5.7 40 7.0 E 11 17 6 9 1029.1 1028.9 0.0
22/11:00am 19.3 16.2 5.7 41 6.7 E 11 19 6 10 1029.4 1029.2 0.0
22/10:30am 18.3 14.4 5.5 43 6.3 E 15 20 8 11 1029.7 1029.5 0.0
22/10:00am 17.9 14.2 6.1 46 5.8 ENE 15 22 8 12 1029.9 1029.7 0.0
22/09:30am 17.0 13.3 6.2 49 5.3 E 15 19 8 10 1030.0 1029.8 0.0
22/09:00am 15.9 12.3 6.6 54 4.6 E 15 20 8 11 1030.1 1029.9 0.0
22/08:30am 15.3 11.7 6.6 56 4.3 E 15 20 8 11 1030.1 1029.9 0.0
22/08:00am 14.4 11.9 6.7 60 3.7 E 9 11 5 6 1029.8 1029.6 0.0
22/07:30am 13.5 11.1 7.1 65 3.1 E 9 11 5 6 1029.5 1029.3 0.0
22/07:00am 12.9 10.9 6.9 67 2.9 E 7 9 4 5 1029.2 1029.0 0.0
22/06:30am 12.9 10.8 6.7 66 3.0 E 7 9 4 5 1028.6 1028.5 0.0
22/06:00am 13.0 10.5 6.4 64 3.2 ENE 9 13 5 7 1027.9 1027.8 0.0
22/05:30am 13.4 10.1 6.3 62 3.4 NE 13 17 7 9 1027.4 1027.3 0.0
22/05:00am 13.7 10.0 6.3 61 3.6 NE 15 24 8 13 1027.1 1026.9 0.0
22/04:30am 14.0 9.4 6.4 60 3.7 ENE 20 22 11 12 1026.6 1026.4 0.0
22/04:00am 14.0 9.3 6.1 59 3.8 ENE 20 24 11 13 1026.2 1026.0 0.0
22/03:30am 13.7 9.5 5.6 58 3.9 ENE 17 22 9 12 1026.1 1025.9 0.0
22/03:00am 14.3 9.1 5.4 55 4.2 E 22 30 12 16 1025.8 1025.6 0.0
22/02:30am 14.6 9.8 4.9 52 4.6 E 19 26 10 14 1025.6 1025.4 0.0
22/02:00am 14.5 10.5 4.8 52 4.5 E 15 20 8 11 1025.7 1025.5 0.0
22/01:30am 14.6 10.1 4.3 50 4.8 E 17 22 9 12 1025.9 1025.7 0.0
22/01:00am 14.4 10.6 3.8 49 4.8 E 13 19 7 10 1026.2 1026.0 0.0
22/12:30am 13.8 10.2 3.0 48 4.9 ESE 11 15 6 8 1026.4 1026.2 0.0
22/12:00am 12.5 8.8 2.4 50 4.4 SE 11 13 6 7 1026.5 1026.3 0.0
 
Date/Time
EST
Temp
°C
App
Temp
°C
Dew
Point
Rel
Hum
%
Delta-T
°C
Wind Press
QNH
hPa
Press
MSL
hPa
Rain
since 9 am
mm
Dir
 
Spd
km/h
Gust
km/h
Spd
kts
Gust
kts
21/11:30pm 13.2 9.8 1.8 46 5.0 SE 9 13 5 7 1026.4 1026.2 0.0
21/11:00pm 14.0 10.4 0.6 40 5.7 SE 9 13 5 7 1026.5 1026.3 0.0
21/10:30pm 15.7 11.4 1.1 37 6.4 ESE 13 17 7 9 1026.4 1026.2 0.0
21/10:00pm 16.3 12.0 0.8 35 6.8 ESE 13 17 7 9 1026.1 1025.9 0.0
21/09:30pm 17.3 13.0 0.9 33 7.3 ESE 13 19 7 10 1026.2 1026.0 0.0
21/09:00pm 17.7 13.4 0.8 32 7.5 ESE 13 17 7 9 1026.1 1025.9 0.0
21/08:30pm 17.5 12.8 0.6 32 7.5 ESE 15 20 8 11 1025.9 1025.7 0.0
21/08:00pm 18.2 13.1 0.8 31 7.7 ESE 17 24 9 13 1025.8 1025.6 0.0
21/07:30pm 18.6 13.4 0.2 29 8.1 ESE 17 22 9 12 1025.5 1025.3 0.0
21/07:00pm 18.9 14.1 0.0 28 8.3 ESE 15 22 8 12 1025.3 1025.1 0.0
21/06:30pm 19.4 14.8 -1.1 25 8.9 ESE 13 17 7 9 1024.8 1024.6 0.0
21/06:00pm 20.5 15.4 -1.9 22 9.6 SE 15 20 8 11 1024.4 1024.2 0.0
21/05:30pm 21.2 15.8 -1.3 22 9.9 SE 17 20 9 11 1024.2 1024.0 0.0
21/05:00pm 21.6 15.8 -0.4 23 9.8 SE 20 26 11 14 1023.8 1023.6 0.0
21/04:30pm 22.1 15.9 -0.6 22 10.2 SSE 22 32 12 17 1023.6 1023.4 0.0
21/04:00pm 23.2 17.1 -2.4 18 11.1 SSE 20 30 11 16 1023.7 1023.5 0.0
21/03:30pm 22.9 17.5 -1.2 20 10.8 SSE 17 26 9 14 1024.2 1024.0 0.0
21/03:00pm 22.8 16.3 -2.7 18 11.0 SSE 22 32 12 17 1024.2 1024.0 0.0
21/02:30pm 23.1 18.5 -1.1 20 10.8 SSE 13 22 7 12 1024.2 1024.0 0.0
21/02:00pm 22.7 16.7 -2.8 18 11.0 S 19 30 10 16 1024.2 1024.0 0.0
21/01:30pm 22.8 17.1 -0.6 21 10.6 SSE 19 30 10 16 1024.6 1024.4 0.0
21/01:00pm 22.2 16.8 -1.1 21 10.3 SE 17 28 9 15 1025.4 1025.2 0.0
21/12:30pm 21.4 17.1 1.1 26 9.4 SSE 13 22 7 12 1025.9 1025.7 0.0
21/12:00pm 20.8 16.6 1.6 28 8.8 SE 13 19 7 10 1026.4 1026.2 0.0
21/11:30am 20.4 16.2 1.8 29 8.6 ENE 13 22 7 12 1026.8 1026.6 0.0
21/11:00am 20.1 15.2 2.0 30 8.4 ENE 17 28 9 15 1027.2 1027.0 0.0
21/10:30am 19.0 13.2 2.4 33 7.7 ENE 22 30 12 16 1027.5 1027.4 0.0
21/10:00am 18.5 12.4 2.8 35 7.3 E 24 35 13 19 1027.8 1027.7 0.0
21/09:30am 17.2 11.2 3.5 40 6.4 E 24 35 13 19 1027.9 1027.8 0.0
21/09:00am 15.8 10.8 4.8 48 5.2 E 20 33 11 18 1027.9 1027.8 0.0
21/08:30am 15.1 10.2 5.0 51 4.8 E 20 32 11 17 1027.5 1027.4 0.0
21/08:00am 13.9 9.0 5.3 56 4.0 E 20 28 11 15 1027.2 1027.0 0.0
21/07:30am 13.1 7.8 5.0 58 3.8 E 22 30 12 16 1027.1 1026.9 0.0
21/07:00am 12.2 7.2 4.7 60 3.4 E 20 30 11 16 1026.6 1026.4 0.0
21/06:30am 11.6 7.5 4.6 62 3.2 E 15 22 8 12 1026.2 1026.0 0.0
21/06:00am 11.5 7.0 4.0 60 3.4 E 17 28 9 15 1025.7 1025.5 0.0
21/05:30am 11.8 6.6 3.3 56 3.8 E 20 32 11 17 1025.4 1025.2 0.0
21/05:00am 12.1 7.4 3.1 54 4.0 E 17 24 9 13 1025.1 1024.9 0.0
21/04:30am 11.4 7.1 3.2 57 3.6 E 15 20 8 11 1024.7 1024.5 0.0
21/04:00am 9.3 5.3 0.5 54 3.6 E 11 15 6 8 1024.3 1024.1 0.0
21/03:30am 9.2 5.0 -0.7 50 3.9 ESE 11 15 6 8 1023.9 1023.7 0.0
21/03:00am 9.9 5.4 -0.6 48 4.2 SE 13 17 7 9 1023.6 1023.4 0.0
21/02:30am 8.4 3.4 -1.4 50 3.8 SSE 15 17 8 9 1023.6 1023.4 0.0
21/02:00am 8.5 3.9 -1.3 50 3.8 SSE 13 15 7 8 1023.6 1023.4 0.0
21/01:30am 9.4 4.4 -1.0 48 4.1 SSE 15 19 8 10 1024.0 1023.8 0.0
21/01:00am 9.6 4.5 -1.7 45 4.4 SSE 15 17 8 9 1024.3 1024.1 0.0
21/12:30am 10.6 5.5 -1.8 42 4.9 SSE 15 19 8 10 1024.3 1024.1 0.0
21/12:00am 10.5 5.5 -1.5 43 4.7 SSE 15 17 8 9 1024.2 1024.0 0.0
 
Date/Time
EST
Temp
°C
App
Temp
°C
Dew
Point
Rel
Hum
%
Delta-T
°C
Wind Press
QNH
hPa
Press
MSL
hPa
Rain
since 9 am
mm
Dir
 
Spd
km/h
Gust
km/h
Spd
kts
Gust
kts
20/11:30pm 10.4 5.6 -2.3 41 4.9 SSE 13 17 7 9 1024.3 1024.1 0.0
20/11:00pm 10.1 5.2 -3.6 38 5.1 SE 13 13 7 7 1024.5 1024.3 0.0
20/10:30pm 12.6 7.3 -3.6 32 6.2 S 15 19 8 10 1024.1 1023.9 0.0
20/10:00pm 14.0 7.9 -4.2 28 7.0 S 19 24 10 13 1023.9 1023.7 0.0
20/09:30pm 14.5 8.3 -4.7 26 7.4 S 19 22 10 12 1023.6 1023.4 0.0
20/09:00pm 14.8 8.6 -5.0 25 7.5 S 19 24 10 13 1023.3 1023.1 0.0
20/08:30pm 14.9 8.6 -5.5 24 7.7 S 19 24 10 13 1023.2 1023.0 0.0

Other Formats:

Comma delimited format used in spreadsheet applications
http://www.bom.gov.au/fwo/IDN60801/IDN60801.95718.axf

JavaScript Object Notation format (JSON) in row-major order
http://www.bom.gov.au/fwo/IDN60801/IDN60801.95718.json